createdAt,value
2017-07-27T00:01:30.762Z,98856.52
2017-07-27T00:03:58.425Z,98850.85
2017-07-27T00:06:26.025Z,98850.17
2017-07-27T00:08:53.664Z,98857.41
2017-07-27T00:11:21.317Z,98860.34
2017-07-27T00:13:48.941Z,98858.92
2017-07-27T00:16:16.568Z,98852.12
2017-07-27T00:18:44.244Z,98850.17
2017-07-27T00:21:11.875Z,98837.38
2017-07-27T00:23:39.508Z,98843.62
2017-07-27T00:26:07.158Z,98839.53
2017-07-27T00:28:34.787Z,98827.29
2017-07-27T00:31:02.397Z,98832.67
2017-07-27T00:33:30.075Z,98822.19
2017-07-27T00:35:57.687Z,98813.16
2017-07-27T00:38:25.690Z,98814.64
2017-07-27T00:40:53.560Z,98818.27
2017-07-27T00:43:21.618Z,98814.02
2017-07-27T00:45:49.391Z,98816.19
2017-07-27T00:48:17.361Z,98811.05
2017-07-27T00:50:45.149Z,98815.20
2017-07-27T00:53:13.091Z,98817.36
2017-07-27T00:55:41.157Z,98822.09
2017-07-27T00:58:08.954Z,98818.59
2017-07-27T01:00:36.804Z,98807.93
2017-07-27T01:03:04.661Z,98804.65
2017-07-27T01:05:32.347Z,98806.88
2017-07-27T01:08:00.196Z,98804.81
2017-07-27T01:10:28.373Z,98800.23
2017-07-27T01:12:56.226Z,98808.09
2017-07-27T01:15:24.102Z,98807.53
2017-07-27T01:17:51.961Z,98802.34
2017-07-27T01:20:19.636Z,98784.96
2017-07-27T01:22:47.496Z,98785.67
2017-07-27T01:25:15.561Z,98794.89
2017-07-27T01:27:43.279Z,98800.73
2017-07-27T01:30:11.171Z,98806.91
2017-07-27T01:32:39.178Z,98806.02
2017-07-27T01:35:07.029Z,98813.81
2017-07-27T01:37:34.896Z,98806.52
2017-07-27T01:40:02.917Z,98802.73
2017-07-27T01:42:30.852Z,98805.30
2017-07-27T01:44:58.535Z,98794.33
2017-07-27T01:49:57.588Z,98787.92
2017-07-27T01:52:25.387Z,98791.48
2017-07-27T01:54:53.121Z,98787.52
2017-07-27T01:57:21.126Z,98777.13
2017-07-27T01:59:48.996Z,98780.34
2017-07-27T02:02:16.845Z,98774.16
2017-07-27T02:04:44.789Z,98774.41
2017-07-27T02:07:12.778Z,98774.16
2017-07-27T02:09:40.663Z,98768.08
2017-07-27T02:12:08.535Z,98761.13
2017-07-27T02:14:36.374Z,98759.48
2017-07-27T02:17:04.124Z,98765.02
2017-07-27T02:19:32.091Z,98772.68
2017-07-27T02:21:59.792Z,98773.89
2017-07-27T02:24:27.648Z,98773.08
2017-07-27T02:26:55.692Z,98768.11
2017-07-27T02:29:23.381Z,98773.94
2017-07-27T02:31:51.101Z,98782.19
2017-07-27T02:34:19.128Z,98784.36
2017-07-27T02:36:46.985Z,98788.48
2017-07-27T02:39:14.678Z,98786.96
2017-07-27T02:41:42.694Z,98796.76
2017-07-27T02:44:10.394Z,98799.32
2017-07-27T02:46:38.059Z,98804.05
2017-07-27T02:49:05.740Z,98802.29
2017-07-27T02:51:33.785Z,98797.85
2017-07-27T02:54:01.501Z,98801.50
2017-07-27T02:56:29.497Z,98802.17
2017-07-27T02:58:57.389Z,98800.81
2017-07-27T03:01:25.008Z,98805.80
2017-07-27T03:03:52.684Z,98808.11
2017-07-27T03:06:20.291Z,98805.03
2017-07-27T03:08:47.899Z,98805.23
2017-07-27T03:11:15.606Z,98804.63
2017-07-27T03:13:43.244Z,98806.37
2017-07-27T03:16:10.904Z,98814.67
2017-07-27T03:18:38.582Z,98817.53
2017-07-27T03:21:06.228Z,98828.00
2017-07-27T03:23:33.843Z,98832.38
2017-07-27T03:26:01.516Z,98843.45
2017-07-27T03:28:29.135Z,98841.10
2017-07-27T03:30:56.765Z,98846.73
2017-07-27T03:33:24.418Z,98847.78
2017-07-27T03:35:52.036Z,98852.07
2017-07-27T03:38:19.652Z,98848.73
2017-07-27T03:40:47.292Z,98845.36
2017-07-27T03:43:14.916Z,98852.96
2017-07-27T03:45:42.531Z,98848.74
2017-07-27T03:48:10.181Z,98842.08
2017-07-27T03:50:37.853Z,98847.71
2017-07-27T03:53:05.452Z,98850.25
2017-07-27T03:55:33.101Z,98851.30
2017-07-27T03:58:00.727Z,98855.14
2017-07-27T04:00:28.342Z,98857.16
2017-07-27T04:02:56.019Z,98857.72
2017-07-27T04:05:23.647Z,98857.22
2017-07-27T04:07:51.246Z,98860.38
2017-07-27T04:10:18.910Z,98870.15
2017-07-27T04:12:46.541Z,98870.21
2017-07-27T04:15:14.155Z,98871.64
2017-07-27T04:17:41.821Z,98862.94
2017-07-27T04:20:09.444Z,98860.94
2017-07-27T04:22:37.075Z,98861.86
2017-07-27T04:25:04.716Z,98857.72
2017-07-27T04:27:32.341Z,98855.95
2017-07-27T04:30:00.149Z,98853.79
2017-07-27T04:32:27.836Z,98856.82
2017-07-27T04:34:56.242Z,98865.42
2017-07-27T04:37:23.870Z,98865.23
2017-07-27T04:39:51.537Z,98870.48
2017-07-27T04:42:19.159Z,98870.59
2017-07-27T04:44:46.775Z,98873.41
2017-07-27T04:47:14.468Z,98875.09
2017-07-27T04:49:42.082Z,98871.38
2017-07-27T04:52:09.691Z,98875.33
2017-07-27T04:54:37.350Z,98886.30
2017-07-27T04:57:16.665Z,98878.80
2017-07-27T04:59:44.321Z,98876.50
2017-07-27T05:02:11.965Z,98873.87
2017-07-27T05:04:39.576Z,98879.38
2017-07-27T05:07:07.261Z,98883.88
2017-07-27T05:09:34.879Z,98889.95
2017-07-27T05:12:02.497Z,98895.00
2017-07-27T05:14:30.189Z,98892.95
2017-07-27T05:16:57.815Z,98891.02
2017-07-27T05:19:25.514Z,98880.80
2017-07-27T05:21:53.192Z,98892.95
2017-07-27T05:24:20.797Z,98894.23
2017-07-27T05:26:48.416Z,98897.20
2017-07-27T05:29:16.105Z,98893.93
2017-07-27T05:31:43.722Z,98899.59
2017-07-27T05:34:11.357Z,98891.34
2017-07-27T05:36:39.013Z,98900.66
2017-07-27T05:39:06.625Z,98907.26
2017-07-27T05:41:34.256Z,98915.46
2017-07-27T05:44:01.975Z,98926.89
2017-07-27T05:46:29.604Z,98928.16
2017-07-27T05:48:57.230Z,98932.90
2017-07-27T05:51:24.941Z,98939.31
2017-07-27T05:53:52.550Z,98940.50
2017-07-27T05:56:20.323Z,98944.97
2017-07-27T05:58:47.985Z,98937.61
2017-07-27T06:01:15.601Z,98946.08
2017-07-27T06:03:43.205Z,98941.54
2017-07-27T06:06:10.875Z,98942.45
2017-07-27T06:08:38.486Z,98945.08
2017-07-27T06:11:06.110Z,98944.80
2017-07-27T06:13:33.788Z,98939.45
2017-07-27T06:16:01.415Z,98941.77
2017-07-27T06:18:29.051Z,98950.80
2017-07-27T06:20:56.759Z,98944.55
2017-07-27T06:23:24.396Z,98948.03
2017-07-27T06:25:52.020Z,98949.84
2017-07-27T06:28:19.674Z,98960.11
2017-07-27T06:30:47.374Z,98956.45
2017-07-27T06:33:14.991Z,98965.34
2017-07-27T06:35:42.675Z,98966.98
2017-07-27T06:38:10.294Z,98958.42
2017-07-27T06:40:37.908Z,98963.05
2017-07-27T06:43:05.641Z,98958.76
2017-07-27T06:45:33.267Z,98962.19
2017-07-27T06:48:00.899Z,98954.52
2017-07-27T06:50:28.559Z,98952.30
2017-07-27T06:52:56.162Z,98943.16
2017-07-27T06:55:23.779Z,98947.65
2017-07-27T06:57:51.477Z,98944.22
2017-07-27T07:00:19.114Z,98948.36
2017-07-27T07:02:46.725Z,98954.14
2017-07-27T07:05:14.411Z,98947.48
2017-07-27T07:07:42.025Z,98950.41
2017-07-27T07:10:09.649Z,98955.02
2017-07-27T07:12:37.328Z,98962.42
2017-07-27T07:15:04.956Z,98958.53
2017-07-27T07:17:32.559Z,98962.41
2017-07-27T07:20:00.247Z,98966.01
2017-07-27T07:22:27.920Z,98972.27
2017-07-27T07:24:55.539Z,98964.44
2017-07-27T07:27:23.193Z,98971.34
2017-07-27T07:29:50.817Z,98969.24
2017-07-27T07:32:18.429Z,98971.36
2017-07-27T07:34:46.112Z,98983.25
2017-07-27T07:37:13.702Z,98996.58
2017-07-27T07:39:41.314Z,99006.78
2017-07-27T07:42:09.007Z,99012.36
2017-07-27T07:44:36.636Z,99011.80
2017-07-27T07:47:04.247Z,99010.23
2017-07-27T07:49:31.923Z,99018.62
2017-07-27T07:51:59.562Z,99023.11
2017-07-27T07:54:27.172Z,99022.08
2017-07-27T07:56:54.833Z,99027.20
2017-07-27T07:59:22.497Z,99034.23
2017-07-27T08:01:50.133Z,99032.66
2017-07-27T08:04:17.805Z,99031.34
2017-07-27T08:06:45.600Z,99034.35
2017-07-27T08:09:25.125Z,99034.66
2017-07-27T08:11:52.737Z,99033.47
2017-07-27T08:14:20.363Z,99036.62
2017-07-27T08:16:48.025Z,99038.70
2017-07-27T08:19:15.644Z,99045.02
2017-07-27T08:21:43.275Z,99043.61
2017-07-27T08:24:11.011Z,99043.13
2017-07-27T08:26:38.618Z,99041.52
2017-07-27T08:29:06.224Z,99044.77
2017-07-27T08:31:33.942Z,99036.16
2017-07-27T08:34:01.542Z,99032.53
2017-07-27T08:36:29.161Z,99026.61
2017-07-27T08:38:56.839Z,99024.97
2017-07-27T08:41:24.443Z,99025.50
2017-07-27T08:43:52.065Z,99024.95
2017-07-27T08:46:19.773Z,99029.63
2017-07-27T08:48:47.375Z,99035.83
2017-07-27T08:51:14.982Z,99043.33
2017-07-27T08:53:42.654Z,99050.66
2017-07-27T08:56:10.274Z,99047.33
2017-07-27T08:58:37.873Z,99045.59
2017-07-27T09:01:05.547Z,99036.08
2017-07-27T09:03:33.171Z,99038.37
2017-07-27T09:06:00.808Z,99031.79
2017-07-27T09:08:28.505Z,99036.98
2017-07-27T09:10:56.135Z,99033.56
2017-07-27T09:13:23.741Z,99033.28
2017-07-27T09:15:51.437Z,99033.31
2017-07-27T09:18:19.061Z,99031.41
2017-07-27T09:20:46.728Z,99025.11
2017-07-27T09:23:14.411Z,99030.55
2017-07-27T09:25:42.039Z,99037.20
2017-07-27T09:28:09.731Z,99034.00
2017-07-27T09:30:37.405Z,99043.83
2017-07-27T09:33:05.024Z,99045.04
2017-07-27T09:35:32.663Z,99060.27
2017-07-27T09:38:00.337Z,99064.47
2017-07-27T09:40:27.995Z,99062.53
2017-07-27T09:42:55.622Z,99062.78
2017-07-27T09:45:23.285Z,99056.61
2017-07-27T09:47:50.921Z,99048.57
2017-07-27T09:50:18.526Z,99047.03
2017-07-27T09:52:46.199Z,99046.16
2017-07-27T09:55:13.828Z,99041.21
2017-07-27T09:57:46.832Z,99038.34
2017-07-27T10:00:14.468Z,99033.23
2017-07-27T10:02:42.093Z,99027.38
2017-07-27T10:05:09.967Z,99022.48
2017-07-27T10:07:37.628Z,99022.19
2017-07-27T10:10:05.470Z,99027.84
2017-07-27T10:12:33.285Z,99027.29
2017-07-27T10:15:00.949Z,99027.53
2017-07-27T10:17:28.563Z,99028.00
2017-07-27T10:19:56.480Z,99025.43
2017-07-27T10:22:24.416Z,99020.78
2017-07-27T10:24:52.082Z,99019.42
2017-07-27T10:27:19.740Z,99020.69
2017-07-27T10:29:47.573Z,99022.33
2017-07-27T10:32:15.319Z,99017.25
2017-07-27T10:34:43.312Z,99018.30
2017-07-27T10:37:11.013Z,99014.42
2017-07-27T10:39:38.614Z,99021.91
2017-07-27T10:42:06.279Z,99029.21
2017-07-27T10:44:33.900Z,99036.91
2017-07-27T10:47:01.541Z,99039.01
2017-07-27T10:49:29.210Z,99040.20
2017-07-27T10:51:56.819Z,99040.91
2017-07-27T10:54:24.423Z,99047.50
2017-07-27T10:56:52.104Z,99048.92
2017-07-27T10:59:19.714Z,99047.64
2017-07-27T11:01:47.323Z,99047.13
2017-07-27T11:04:14.984Z,99051.60
2017-07-27T11:06:42.747Z,99048.11
2017-07-27T11:09:10.369Z,99042.19
2017-07-27T11:11:38.067Z,99044.84
2017-07-27T11:14:05.780Z,99042.88
2017-07-27T11:16:33.598Z,99045.72
2017-07-27T11:19:01.497Z,99049.52
2017-07-27T11:21:29.230Z,99045.69
2017-07-27T11:23:57.177Z,99035.29
2017-07-27T11:26:24.915Z,99037.06
2017-07-27T11:28:52.734Z,99028.62
2017-07-27T11:31:20.398Z,99021.52
2017-07-27T11:33:48.441Z,99012.77
2017-07-27T11:36:16.331Z,99006.34
2017-07-27T11:38:44.052Z,98997.69
2017-07-27T11:41:11.859Z,99003.73
2017-07-27T11:43:39.583Z,98999.52
2017-07-27T11:46:07.191Z,99002.98
2017-07-27T11:48:35.357Z,98995.10
2017-07-27T11:51:03.330Z,99004.53
2017-07-27T11:53:30.991Z,99005.65
2017-07-27T11:55:59.064Z,99003.81
2017-07-27T11:58:26.720Z,98997.23
2017-07-27T12:00:54.731Z,98994.27
2017-07-27T12:03:22.620Z,98997.34
2017-07-27T12:05:50.252Z,98995.30
2017-07-27T12:08:18.137Z,98988.83
2017-07-27T12:10:46.122Z,98985.30
2017-07-27T12:13:13.914Z,98983.46
2017-07-27T12:15:41.527Z,98988.72
2017-07-27T12:18:09.213Z,98984.53
2017-07-27T12:20:36.817Z,98984.17
2017-07-27T12:23:04.790Z,98977.70
2017-07-27T12:25:32.479Z,98974.02
2017-07-27T12:28:00.102Z,98964.03
2017-07-27T12:30:27.831Z,98962.52
2017-07-27T12:32:55.518Z,98954.67
2017-07-27T12:35:23.469Z,98958.19
2017-07-27T12:37:51.369Z,98954.14
2017-07-27T12:40:19.424Z,98955.77
2017-07-27T12:42:47.144Z,98955.04
2017-07-27T12:45:14.964Z,98951.61
2017-07-27T12:47:42.836Z,98956.63
2017-07-27T12:50:10.499Z,98947.33
2017-07-27T12:52:38.162Z,98949.77
2017-07-27T12:55:05.827Z,98955.67
2017-07-27T12:57:33.417Z,98951.42
2017-07-27T13:00:01.143Z,98952.25
2017-07-27T13:02:28.799Z,98947.69
2017-07-27T13:04:56.654Z,98938.30
2017-07-27T13:07:24.332Z,98947.80
2017-07-27T13:09:52.412Z,98948.20
2017-07-27T13:12:20.061Z,98954.98
2017-07-27T13:14:47.733Z,98950.97
2017-07-27T13:17:15.654Z,98949.32
2017-07-27T13:19:43.670Z,98945.66
2017-07-27T13:22:11.390Z,98942.61
2017-07-27T13:24:39.022Z,98944.61
2017-07-27T13:27:06.777Z,98936.70
2017-07-27T13:29:34.374Z,98937.62
2017-07-27T13:32:02.036Z,98933.70
2017-07-27T13:34:29.640Z,98926.48
2017-07-27T13:36:57.304Z,98932.20
2017-07-27T13:39:25.379Z,98934.88
2017-07-27T13:41:53.231Z,98931.56
2017-07-27T13:44:20.904Z,98936.41
2017-07-27T13:46:48.935Z,98936.47
2017-07-27T13:49:16.643Z,98931.02
2017-07-27T13:51:44.245Z,98929.08
2017-07-27T13:54:11.965Z,98927.45
2017-07-27T13:56:39.626Z,98934.92
2017-07-27T13:59:07.350Z,98931.29
2017-07-27T14:01:34.990Z,98925.34
2017-07-27T14:04:02.598Z,98927.84
2017-07-27T14:06:30.275Z,98919.97
2017-07-27T14:08:58.119Z,98923.08
2017-07-27T14:11:25.955Z,98918.36
2017-07-27T14:13:53.546Z,98917.96
2017-07-27T14:16:21.200Z,98914.64
2017-07-27T14:18:48.836Z,98913.58
2017-07-27T14:21:16.473Z,98911.51
2017-07-27T14:23:44.168Z,98906.26
2017-07-27T14:26:11.847Z,98903.27
2017-07-27T14:28:39.454Z,98909.50
2017-07-27T14:31:07.071Z,98908.08
2017-07-27T14:33:34.731Z,98908.88
2017-07-27T14:36:02.356Z,98907.45
2017-07-27T14:38:31.449Z,98912.77
2017-07-27T14:40:59.139Z,98903.83
2017-07-27T14:43:26.743Z,98905.04
2017-07-27T14:45:55.039Z,98902.70
2017-07-27T14:48:23.467Z,98902.34
2017-07-27T14:50:51.941Z,98898.50
2017-07-27T14:53:19.578Z,98895.45
2017-07-27T14:55:47.277Z,98888.11
2017-07-27T14:58:14.885Z,98885.44
2017-07-27T15:00:42.492Z,98894.30
2017-07-27T15:03:10.154Z,98893.82
2017-07-27T15:05:37.884Z,98892.05
2017-07-27T15:08:06.238Z,98889.27
2017-07-27T15:10:33.993Z,98889.27
2017-07-27T15:13:01.759Z,98883.13
2017-07-27T15:15:29.382Z,98891.66
2017-07-27T15:17:57.113Z,98890.59
2017-07-27T15:20:24.712Z,98888.61
2017-07-27T15:22:52.304Z,98889.31
2017-07-27T15:25:19.966Z,98883.61
2017-07-27T15:27:47.557Z,98884.01
2017-07-27T15:30:15.159Z,98886.27
2017-07-27T15:32:42.922Z,98889.48
2017-07-27T15:35:10.667Z,98888.47
2017-07-27T15:37:38.291Z,98884.27
2017-07-27T15:40:05.955Z,98875.66
2017-07-27T15:42:33.604Z,98875.04
2017-07-27T15:45:01.275Z,98875.27
2017-07-27T15:47:28.923Z,98872.22
2017-07-27T15:49:56.528Z,98875.59
2017-07-27T15:52:24.154Z,98878.55
2017-07-27T15:54:51.860Z,98880.33
2017-07-27T15:57:19.475Z,98878.78
2017-07-27T15:59:47.118Z,98869.12
2017-07-27T16:02:14.804Z,98873.15
2017-07-27T16:04:42.413Z,98866.16
2017-07-27T16:07:10.037Z,98863.11
2017-07-27T16:09:37.736Z,98864.69
2017-07-27T16:12:05.511Z,98866.45
2017-07-27T16:14:33.133Z,98875.04
2017-07-27T16:17:00.876Z,98874.13
2017-07-27T16:19:28.490Z,98876.36
2017-07-27T16:21:56.096Z,98878.59
2017-07-27T16:24:23.815Z,98880.95
2017-07-27T16:26:51.422Z,98878.09
2017-07-27T16:29:19.082Z,98878.60
2017-07-27T16:31:47.151Z,98879.16
2017-07-27T16:34:14.817Z,98873.63
2017-07-27T16:36:42.681Z,98868.48
2017-07-27T16:39:10.556Z,98860.59
2017-07-27T16:41:38.159Z,98866.16
2017-07-27T16:44:05.864Z,98864.38
2017-07-27T16:46:33.773Z,98866.31
2017-07-27T16:49:01.403Z,98869.90
2017-07-27T16:51:29.249Z,98865.97
2017-07-27T16:53:57.135Z,98859.00
2017-07-27T16:56:24.854Z,98861.09
2017-07-27T16:58:52.865Z,98861.25
2017-07-27T17:01:20.643Z,98856.25
2017-07-27T17:03:48.502Z,98857.05
2017-07-27T17:06:16.481Z,98860.77
2017-07-27T17:08:44.462Z,98849.37
2017-07-27T17:11:12.057Z,98856.20
2017-07-27T17:13:40.075Z,98857.11
2017-07-27T17:16:07.942Z,98854.53
2017-07-27T17:18:35.596Z,98856.84
2017-07-27T17:21:03.262Z,98853.70
2017-07-27T17:23:31.114Z,98852.72
2017-07-27T17:25:58.791Z,98858.14
2017-07-27T17:28:26.451Z,98860.12
2017-07-27T17:30:54.343Z,98863.02
2017-07-27T17:33:22.087Z,98864.06
2017-07-27T17:35:50.026Z,98865.30
2017-07-27T17:38:17.924Z,98871.20
2017-07-27T17:40:45.762Z,98875.66
2017-07-27T17:43:13.455Z,98876.47
2017-07-27T17:45:41.492Z,98877.06
2017-07-27T17:48:09.192Z,98885.30
2017-07-27T17:50:36.850Z,98882.91
2017-07-27T17:53:04.569Z,98887.16
2017-07-27T17:55:32.290Z,98887.39
2017-07-27T17:57:59.901Z,98888.23
2017-07-27T18:00:27.749Z,98886.03
2017-07-27T18:02:55.566Z,98895.23
2017-07-27T18:05:23.213Z,98896.11
2017-07-27T18:07:51.096Z,98895.91
2017-07-27T18:10:18.753Z,98900.91
2017-07-27T18:12:46.483Z,98899.03
2017-07-27T18:15:14.192Z,98900.19
2017-07-27T18:17:41.918Z,98899.47
2017-07-27T18:20:09.812Z,98902.05
2017-07-27T18:22:37.476Z,98906.44
2017-07-27T18:25:05.115Z,98903.72
2017-07-27T18:27:32.801Z,98908.30
2017-07-27T18:30:00.824Z,98903.52
2017-07-27T18:32:28.545Z,98899.28
2017-07-27T18:34:56.395Z,98903.47
2017-07-27T18:37:24.075Z,98901.91
2017-07-27T18:39:51.935Z,98909.05
2017-07-27T18:42:19.983Z,98910.42
2017-07-27T18:44:47.932Z,98912.03
2017-07-27T18:47:15.735Z,98909.80
2017-07-27T18:49:43.506Z,98906.68
2017-07-27T18:52:11.226Z,98908.56
2017-07-27T18:54:39.200Z,98908.66
2017-07-27T18:57:06.861Z,98912.19
2017-07-27T18:59:34.640Z,98910.33
2017-07-27T19:02:02.255Z,98912.19
2017-07-27T19:04:29.872Z,98907.04
2017-07-27T19:06:57.529Z,98904.81
2017-07-27T19:09:25.156Z,98908.34
2017-07-27T19:11:52.776Z,98907.10
2017-07-27T19:14:20.784Z,98900.83
2017-07-27T19:16:48.709Z,98895.66
2017-07-27T19:19:16.305Z,98890.55
2017-07-27T19:21:44.038Z,98892.87
2017-07-27T19:24:11.692Z,98886.25
2017-07-27T19:26:39.420Z,98884.39
2017-07-27T19:29:07.235Z,98880.80
2017-07-27T19:31:34.887Z,98879.31
2017-07-27T19:34:02.556Z,98874.77
2017-07-27T19:36:30.559Z,98872.11
2017-07-27T19:38:58.282Z,98873.01
2017-07-27T19:41:26.119Z,98875.92
2017-07-27T19:43:53.756Z,98881.92
2017-07-27T19:46:21.603Z,98882.33
2017-07-27T19:48:49.341Z,98898.63
2017-07-27T19:51:16.987Z,98896.87
2017-07-27T19:53:44.587Z,98897.83
2017-07-27T19:56:12.191Z,98897.28
2017-07-27T19:58:39.845Z,98896.47
2017-07-27T20:01:07.653Z,98901.61
2017-07-27T20:03:35.375Z,98905.53
2017-07-27T20:06:03.056Z,98916.77
2017-07-27T20:08:31.047Z,98922.37
2017-07-27T20:10:58.912Z,98927.88
2017-07-27T20:13:26.982Z,98932.55
2017-07-27T20:15:54.840Z,98928.59
2017-07-27T20:18:22.575Z,98931.09
2017-07-27T20:20:50.589Z,98930.23
2017-07-27T20:23:18.252Z,98928.03
2017-07-27T20:25:45.976Z,98931.09
2017-07-27T20:28:13.779Z,98926.30
2017-07-27T20:30:41.444Z,98932.70
2017-07-27T20:33:09.098Z,98928.74
2017-07-27T20:35:36.988Z,98915.62
2017-07-27T20:38:04.659Z,98924.53
2017-07-27T20:40:32.358Z,98929.08
2017-07-27T20:43:00.140Z,98930.59
2017-07-27T20:45:27.823Z,98932.52
2017-07-27T20:47:55.443Z,98933.08
2017-07-27T20:50:23.112Z,98941.23
2017-07-27T20:52:50.720Z,98939.91
2017-07-27T20:55:18.662Z,98940.52
2017-07-27T20:57:46.647Z,98941.67
2017-07-27T21:00:14.267Z,98945.51
2017-07-27T21:02:41.891Z,98949.68
2017-07-27T21:05:09.583Z,98959.09
2017-07-27T21:07:37.196Z,98960.59
2017-07-27T21:12:37.586Z,98964.93
2017-07-27T21:15:05.200Z,98964.53
2017-07-27T21:17:32.823Z,98958.41
2017-07-27T21:20:00.490Z,98967.86
2017-07-27T21:22:28.106Z,98960.10
2017-07-27T21:24:56.373Z,98963.92
2017-07-27T21:27:24.136Z,98959.69
2017-07-27T21:29:51.747Z,98972.92
2017-07-27T21:32:19.584Z,98965.41
2017-07-27T21:34:47.400Z,98966.49
2017-07-27T21:37:15.028Z,98967.28
2017-07-27T21:39:42.662Z,98965.95
2017-07-27T21:42:10.342Z,98972.27
2017-07-27T21:44:37.950Z,98976.39
2017-07-27T21:47:05.914Z,98975.59
2017-07-27T21:49:33.587Z,98973.83
2017-07-27T21:52:01.425Z,98971.47
2017-07-27T21:54:29.187Z,98975.73
2017-07-27T21:56:57.182Z,98971.55
2017-07-27T21:59:24.928Z,98970.67
2017-07-27T22:01:52.933Z,98965.16
2017-07-27T22:04:20.783Z,98970.24
2017-07-27T22:06:48.372Z,98973.97
2017-07-27T22:09:16.110Z,98982.30
2017-07-27T22:11:43.886Z,98981.95
2017-07-27T22:14:11.510Z,98986.30
2017-07-27T22:16:39.100Z,98988.92
2017-07-27T22:19:06.762Z,98994.06
2017-07-27T22:21:34.605Z,98990.52
2017-07-27T22:24:02.295Z,98992.63
2017-07-27T22:26:29.929Z,98993.97
2017-07-27T22:28:57.806Z,98990.94
2017-07-27T22:31:25.673Z,98994.90
2017-07-27T22:33:53.414Z,98993.59
2017-07-27T22:36:21.405Z,98988.05
2017-07-27T22:38:49.148Z,98988.50
2017-07-27T22:41:17.115Z,98982.17
2017-07-27T22:43:45.028Z,98978.92
2017-07-27T22:46:12.743Z,98980.97
2017-07-27T22:48:40.737Z,98984.14
2017-07-27T22:51:08.607Z,98987.59
2017-07-27T22:53:36.487Z,98992.25
2017-07-27T22:56:04.542Z,98992.55
2017-07-27T22:58:32.144Z,98984.55
2017-07-27T23:01:00.026Z,98976.28
2017-07-27T23:03:27.957Z,98966.23
2017-07-27T23:05:55.621Z,98961.42
2017-07-27T23:08:23.399Z,98952.27
2017-07-27T23:10:51.357Z,98953.59
2017-07-27T23:13:18.974Z,98956.16
2017-07-27T23:15:46.889Z,98947.20
2017-07-27T23:18:14.925Z,98943.70
2017-07-27T23:20:42.621Z,98930.89
2017-07-27T23:23:10.279Z,98933.94
2017-07-27T23:25:38.384Z,98935.39
2017-07-27T23:28:06.209Z,98941.54
2017-07-27T23:30:33.930Z,98947.08
2017-07-27T23:33:01.926Z,98950.50
2017-07-27T23:35:29.686Z,98951.88
2017-07-27T23:37:57.657Z,98949.97
2017-07-27T23:40:25.473Z,98952.36
2017-07-27T23:42:53.419Z,98946.30
2017-07-27T23:45:21.154Z,98955.89
2017-07-27T23:47:49.124Z,98962.44
2017-07-27T23:50:16.814Z,98971.05
2017-07-27T23:52:44.463Z,98961.75
2017-07-27T23:55:12.554Z,98971.92
2017-07-27T23:57:40.216Z,98972.42
